Time;durP1;ratioP1;P1;durP2;ratioP2;P2;SDS_P1;SDS_P2;PMS_P1;PMS_P2;Temp;Humidity;BMP_temperature;BMP_pressure;BME280_temperature;BME280_humidity;BME280_pressure;Samples;Min_cycle;Max_cycle;Signal;HPM_P1;HPM_P2
2021/08/28 00:01:34;;;;;;;;;;;14.20;99.90;;;;;;5080576;28;19912;-83
2021/08/28 00:04:00;;;;;;;;;;;14.20;99.90;;;;;;5081481;28;19912;-83
2021/08/28 00:06:25;;;;;;;;;;;14.20;99.90;;;;;;5079806;28;19919;-83
2021/08/28 00:08:51;;;;;;;;;;;14.20;99.90;;;;;;5081938;28;19954;-83
2021/08/28 00:11:16;;;;;;;;;;;14.10;99.90;;;;;;5080854;28;19917;-83
2021/08/28 00:13:43;;;;;;;;;;;14.10;99.90;;;;;;5082669;28;19912;-83
2021/08/28 00:16:09;;;;;;;;;;;14.10;99.90;;;;;;5078209;28;19983;-83
2021/08/28 00:18:35;;;;;;;;;;;14.10;99.90;;;;;;5080302;28;19919;-83
2021/08/28 00:21:01;;;;;;;;;;;14.10;99.90;;;;;;5077396;28;19912;-83
2021/08/28 00:23:26;;;;;;;;;;;14.00;99.90;;;;;;5079680;28;19955;-83
2021/08/28 00:25:52;;;;;;;;;;;14.00;99.90;;;;;;5080464;28;20376;-83
2021/08/28 00:28:17;;;;;;;;;;;14.00;99.90;;;;;;5080004;28;19913;-83
2021/08/28 00:30:43;;;;;;;;;;;14.00;99.90;;;;;;5081579;28;19913;-83
2021/08/28 00:33:09;;;;;;;;;;;14.00;99.90;;;;;;5079742;28;19920;-83
2021/08/28 00:35:35;;;;;;;;;;;14.00;99.90;;;;;;5061831;28;19961;-83
2021/08/28 00:38:00;;;;;;;;;;;14.00;99.90;;;;;;5059844;28;19959;-83
2021/08/28 00:40:26;;;;;;;;;;;14.10;99.90;;;;;;5066015;28;20344;-83
2021/08/28 00:42:51;;;;;;;;;;;14.10;99.90;;;;;;5079464;28;19928;-83
2021/08/28 00:45:18;;;;;;;;;;;14.10;99.90;;;;;;5077927;28;19916;-83
2021/08/28 00:47:48;;;;;;;;;;;14.10;99.90;;;;;;5078761;28;19915;-83
2021/08/28 00:50:14;;;;;;;;;;;14.10;99.90;;;;;;5079826;28;19920;-83
2021/08/28 00:52:39;;;;;;;;;;;14.20;99.90;;;;;;5060536;28;20095;-83
2021/08/28 00:55:05;;;;;;;;;;;14.20;99.90;;;;;;5080637;28;19912;-83
2021/08/28 00:57:30;;;;;;;;;;;14.20;99.90;;;;;;5078611;28;19912;-83
2021/08/28 00:59:56;;;;;;;;;;;14.20;99.90;;;;;;5078153;28;19996;-83
2021/08/28 01:02:22;;;;;;;;;;;14.20;99.90;;;;;;5061678;28;19908;-82
2021/08/28 01:04:54;;;;;;;;;;;14.20;99.90;;;;;;5079082;28;19951;-83
2021/08/28 01:07:24;;;;;;;;;;;14.20;99.90;;;;;;5083421;28;19908;-83
2021/08/28 01:09:54;;;;;;;;;;;14.20;99.90;;;;;;5058014;28;19924;-83
2021/08/28 01:12:23;;;;;;;;;;;14.20;99.90;;;;;;5080539;28;19920;-84
2021/08/28 01:14:57;;;;;;;;;;;14.20;99.90;;;;;;5079343;28;20031;-83
2021/08/28 01:17:24;;;;;;;;;;;14.20;99.90;;;;;;5081570;28;19913;-84
2021/08/28 01:19:55;;;;;;;;;;;14.20;99.90;;;;;;5061030;28;19936;-83
2021/08/28 01:22:21;;;;;;;;;;;14.20;99.90;;;;;;5082436;28;19913;-83
2021/08/28 01:24:47;;;;;;;;;;;14.20;99.90;;;;;;5080161;28;19912;-83
2021/08/28 01:27:15;;;;;;;;;;;14.30;99.90;;;;;;5080118;28;19912;-84
2021/08/28 01:29:42;;;;;;;;;;;14.30;99.90;;;;;;5062237;28;19913;-83
2021/08/28 01:32:08;;;;;;;;;;;14.30;99.90;;;;;;5080334;28;19916;-83
2021/08/28 01:34:33;;;;;;;;;;;14.30;99.90;;;;;;5079240;28;20058;-83
2021/08/28 01:37:01;;;;;;;;;;;14.40;99.90;;;;;;5080460;28;19917;-83
2021/08/28 01:39:26;;;;;;;;;;;14.40;99.90;;;;;;5078313;28;19916;-83
2021/08/28 01:41:55;;;;;;;;;;;14.40;99.90;;;;;;5079899;28;19920;-83
2021/08/28 01:44:21;;;;;;;;;;;14.40;99.90;;;;;;5078076;28;20298;-83
2021/08/28 01:46:47;;;;;;;;;;;14.40;99.90;;;;;;5072414;28;19913;-83
2021/08/28 01:49:13;;;;;;;;;;;14.40;99.90;;;;;;5059991;28;19912;-84
2021/08/28 01:51:43;;;;;;;;;;;14.40;99.90;;;;;;5077645;28;19976;-83
2021/08/28 01:54:09;;;;;;;;;;;14.50;99.90;;;;;;5078515;28;19920;-82
2021/08/28 01:56:34;;;;;;;;;;;14.50;99.90;;;;;;5078703;28;19913;-83
2021/08/28 01:59:00;;;;;;;;;;;14.50;99.90;;;;;;5077534;28;19916;-83
2021/08/28 02:01:26;;;;;;;;;;;14.50;99.90;;;;;;5076069;28;20305;-83
2021/08/28 02:03:52;;;;;;;;;;;14.50;99.90;;;;;;5076901;28;19913;-83
2021/08/28 02:06:36;;;;;;;;;;;14.50;99.90;;;;;;5059959;28;19916;-83
2021/08/28 02:09:06;;;;;;;;;;;14.50;99.90;;;;;;5074951;28;20430;-83
2021/08/28 02:11:34;;;;;;;;;;;14.60;99.90;;;;;;5058169;28;20620;-83
2021/08/28 02:14:10;;;;;;;;;;;14.60;99.90;;;;;;5077888;28;19969;-83
2021/08/28 02:16:37;;;;;;;;;;;14.60;99.90;;;;;;5076840;28;19920;-83
2021/08/28 02:19:02;;;;;;;;;;;14.60;99.90;;;;;;5075669;28;19916;-83
2021/08/28 02:21:30;;;;;;;;;;;14.60;99.90;;;;;;5075813;28;19919;-83
2021/08/28 02:24:01;;;;;;;;;;;14.60;99.90;;;;;;5076429;28;19912;-83
2021/08/28 02:26:31;;;;;;;;;;;14.60;99.90;;;;;;5072958;28;19962;-83
2021/08/28 02:29:01;;;;;;;;;;;14.60;99.90;;;;;;5060320;28;19943;-83
2021/08/28 02:31:31;;;;;;;;;;;14.70;99.90;;;;;;5076996;28;19924;-83
2021/08/28 02:33:57;;;;;;;;;;;14.70;99.90;;;;;;5078124;28;19935;-83
2021/08/28 02:36:22;;;;;;;;;;;14.70;99.90;;;;;;5074555;28;19912;-83
2021/08/28 02:38:48;;;;;;;;;;;14.70;99.90;;;;;;5077373;28;19909;-83
2021/08/28 02:41:14;;;;;;;;;;;14.60;99.90;;;;;;5059300;28;19912;-83
2021/08/28 02:43:40;;;;;;;;;;;14.60;99.90;;;;;;5079433;28;19955;-84
2021/08/28 02:46:07;;;;;;;;;;;14.60;99.90;;;;;;5078817;28;19955;-83
2021/08/28 02:48:33;;;;;;;;;;;14.60;99.90;;;;;;5079521;28;20002;-83
2021/08/28 02:51:00;;;;;;;;;;;14.70;99.90;;;;;;5059216;28;20371;-83
2021/08/28 02:53:26;;;;;;;;;;;14.70;99.90;;;;;;5078971;28;20029;-83
2021/08/28 02:55:52;;;;;;;;;;;14.70;99.90;;;;;;5060011;28;19920;-83
2021/08/28 02:58:19;;;;;;;;;;;14.70;99.90;;;;;;5077741;28;19909;-83
2021/08/28 03:00:45;;;;;;;;;;;14.70;99.90;;;;;;5078721;28;19912;-83
2021/08/28 03:03:14;;;;;;;;;;;14.70;99.90;;;;;;5079754;28;19919;-83
2021/08/28 03:05:40;;;;;;;;;;;14.70;99.90;;;;;;5077435;28;19916;-83
2021/08/28 03:08:06;;;;;;;;;;;14.70;99.90;;;;;;5078841;28;19916;-83
2021/08/28 03:10:32;;;;;;;;;;;14.70;99.90;;;;;;5060110;28;20292;-83
2021/08/28 03:12:58;;;;;;;;;;;14.70;99.90;;;;;;5078831;28;19915;-85
2021/08/28 03:15:23;;;;;;;;;;;14.70;99.90;;;;;;5076720;28;19921;-83
2021/08/28 03:17:49;;;;;;;;;;;14.70;99.90;;;;;;5080103;28;19909;-83
2021/08/28 03:20:15;;;;;;;;;;;14.70;99.90;;;;;;5078415;28;19913;-83
2021/08/28 03:22:42;;;;;;;;;;;14.70;99.90;;;;;;5061379;28;19909;-83
2021/08/28 03:25:09;;;;;;;;;;;14.70;99.90;;;;;;5079223;28;19966;-83
2021/08/28 03:27:35;;;;;;;;;;;14.80;99.90;;;;;;5072332;28;19912;-83
2021/08/28 03:30:02;;;;;;;;;;;14.70;99.90;;;;;;5074732;28;20348;-83
2021/08/28 03:32:27;;;;;;;;;;;14.80;99.90;;;;;;5057534;28;19916;-83
2021/08/28 03:34:53;;;;;;;;;;;14.70;99.90;;;;;;5076480;28;20458;-83
2021/08/28 03:37:20;;;;;;;;;;;14.80;99.90;;;;;;5077430;28;19913;-83
2021/08/28 03:39:45;;;;;;;;;;;14.80;99.90;;;;;;5076296;28;19952;-83
2021/08/28 03:42:11;;;;;;;;;;;14.80;99.90;;;;;;5074557;28;19913;-80
2021/08/28 03:44:37;;;;;;;;;;;14.70;99.90;;;;;;5072373;28;19917;-80
2021/08/28 03:47:03;;;;;;;;;;;14.70;99.90;;;;;;5071782;28;19912;-81
2021/08/28 03:49:28;;;;;;;;;;;14.80;99.90;;;;;;5054157;28;20636;-81
2021/08/28 03:51:54;;;;;;;;;;;14.80;99.90;;;;;;5054284;28;19962;-80
2021/08/28 03:54:19;;;;;;;;;;;14.80;99.90;;;;;;5055574;28;19923;-80
2021/08/28 03:56:44;;;;;;;;;;;14.80;99.90;;;;;;5071485;28;19934;-80
2021/08/28 03:59:10;;;;;;;;;;;14.80;99.90;;;;;;5072962;28;19916;-80
2021/08/28 04:01:35;;;;;;;;;;;14.90;99.90;;;;;;5071622;28;19916;-79
2021/08/28 04:04:01;;;;;;;;;;;14.80;99.90;;;;;;5071779;28;19912;-80
2021/08/28 04:06:26;;;;;;;;;;;14.90;99.90;;;;;;5070985;28;19916;-80
2021/08/28 04:08:52;;;;;;;;;;;14.90;99.90;;;;;;5072390;28;19951;-81
2021/08/28 04:11:17;;;;;;;;;;;14.80;99.90;;;;;;5053537;28;20343;-81
2021/08/28 04:13:43;;;;;;;;;;;14.80;99.90;;;;;;5074051;28;19913;-81
2021/08/28 04:16:08;;;;;;;;;;;14.80;99.90;;;;;;5073890;28;19913;-81
2021/08/28 04:18:34;;;;;;;;;;;14.80;99.90;;;;;;5057776;28;20296;-81
2021/08/28 04:20:59;;;;;;;;;;;14.80;99.90;;;;;;5075216;28;20033;-81
2021/08/28 04:23:25;;;;;;;;;;;14.80;99.90;;;;;;5062300;28;20458;-83
2021/08/28 04:25:50;;;;;;;;;;;14.80;99.90;;;;;;5081065;28;19912;-83
2021/08/28 04:28:16;;;;;;;;;;;14.80;99.90;;;;;;5063379;28;20434;-83
2021/08/28 04:30:41;;;;;;;;;;;14.80;99.90;;;;;;5063695;28;19917;-83
2021/08/28 04:33:07;;;;;;;;;;;14.80;99.90;;;;;;5063150;28;19919;-83
2021/08/28 04:35:33;;;;;;;;;;;14.90;99.90;;;;;;5080052;28;19927;-83
2021/08/28 04:37:59;;;;;;;;;;;14.80;99.90;;;;;;5080402;28;20583;-83
2021/08/28 04:40:24;;;;;;;;;;;14.90;99.90;;;;;;5061034;28;20494;-83
2021/08/28 04:42:52;;;;;;;;;;;14.90;99.90;;;;;;5081095;28;19913;-83
2021/08/28 04:45:18;;;;;;;;;;;14.90;99.90;;;;;;5080571;28;19916;-83
2021/08/28 04:47:43;;;;;;;;;;;14.90;99.90;;;;;;5080677;28;19912;-83
2021/08/28 04:50:09;;;;;;;;;;;14.90;99.90;;;;;;5057567;28;20281;-84
2021/08/28 04:52:35;;;;;;;;;;;14.90;99.90;;;;;;5080164;28;19919;-84
2021/08/28 04:55:00;;;;;;;;;;;14.90;99.90;;;;;;5077591;28;19935;-83
2021/08/28 04:57:26;;;;;;;;;;;15.00;99.90;;;;;;5080009;28;20534;-83
2021/08/28 04:59:51;;;;;;;;;;;15.00;99.90;;;;;;5078934;28;19970;-83
2021/08/28 05:02:16;;;;;;;;;;;15.00;99.90;;;;;;5079398;28;20012;-83
2021/08/28 05:04:42;;;;;;;;;;;15.00;99.90;;;;;;5077934;28;19919;-83
2021/08/28 05:07:07;;;;;;;;;;;15.00;99.90;;;;;;5080314;28;20356;-83
2021/08/28 05:09:33;;;;;;;;;;;15.00;99.90;;;;;;5076567;28;19908;-83
2021/08/28 05:11:58;;;;;;;;;;;15.00;99.90;;;;;;5079262;28;19927;-83
2021/08/28 05:14:24;;;;;;;;;;;15.00;99.90;;;;;;5078698;28;19998;-83
2021/08/28 05:16:49;;;;;;;;;;;15.00;99.90;;;;;;5062129;28;20395;-83
2021/08/28 05:19:15;;;;;;;;;;;15.00;99.90;;;;;;5063089;28;19908;-83
2021/08/28 05:21:40;;;;;;;;;;;15.00;99.90;;;;;;5078383;28;19909;-83
2021/08/28 05:24:06;;;;;;;;;;;15.00;99.90;;;;;;5081547;28;19912;-83
2021/08/28 05:26:31;;;;;;;;;;;15.00;99.90;;;;;;5061631;28;19957;-83
2021/08/28 05:28:57;;;;;;;;;;;15.00;99.90;;;;;;5080383;28;19912;-82
2021/08/28 05:31:22;;;;;;;;;;;15.10;99.90;;;;;;5060884;28;19923;-83
2021/08/28 05:33:48;;;;;;;;;;;15.10;99.90;;;;;;5077527;28;20288;-83
2021/08/28 05:36:13;;;;;;;;;;;15.10;99.90;;;;;;5060569;28;19912;-83
2021/08/28 05:38:39;;;;;;;;;;;15.10;99.90;;;;;;5077918;28;20261;-83
2021/08/28 05:41:04;;;;;;;;;;;15.10;99.90;;;;;;5056847;28;19912;-82
2021/08/28 05:43:30;;;;;;;;;;;15.10;99.90;;;;;;5077549;28;19958;-82
2021/08/28 05:45:55;;;;;;;;;;;15.20;99.90;;;;;;5077899;28;19920;-82
2021/08/28 05:48:21;;;;;;;;;;;15.20;99.90;;;;;;5059778;28;19909;-82
2021/08/28 05:50:47;;;;;;;;;;;15.20;99.90;;;;;;5075512;28;20291;-82
2021/08/28 05:53:12;;;;;;;;;;;15.20;99.90;;;;;;5078310;28;19908;-83
2021/08/28 05:55:38;;;;;;;;;;;15.20;99.90;;;;;;5074692;28;19912;-83
2021/08/28 05:58:03;;;;;;;;;;;15.30;99.90;;;;;;5079430;28;19919;-83
2021/08/28 06:00:29;;;;;;;;;;;15.30;99.90;;;;;;5077254;28;20023;-83
2021/08/28 06:02:54;;;;;;;;;;;15.30;99.90;;;;;;5078950;28;19913;-83
2021/08/28 06:05:20;;;;;;;;;;;15.30;99.90;;;;;;5074960;28;20003;-82
2021/08/28 06:07:45;;;;;;;;;;;15.40;99.90;;;;;;5078015;28;19912;-83
2021/08/28 06:10:11;;;;;;;;;;;15.50;99.90;;;;;;5076019;28;19923;-83
2021/08/28 06:12:36;;;;;;;;;;;15.50;99.90;;;;;;5077580;28;19951;-83
2021/08/28 06:15:02;;;;;;;;;;;15.60;99.90;;;;;;5061050;28;19919;-83
2021/08/28 06:17:27;;;;;;;;;;;15.80;99.90;;;;;;5079150;28;19912;-82
2021/08/28 06:19:53;;;;;;;;;;;16.00;99.90;;;;;;5060337;28;20484;-82
2021/08/28 06:22:19;;;;;;;;;;;16.10;99.90;;;;;;5060457;28;20391;-83
2021/08/28 06:24:45;;;;;;;;;;;16.40;99.90;;;;;;5076593;28;19909;-82
2021/08/28 06:27:10;;;;;;;;;;;16.50;99.90;;;;;;5077330;28;19905;-83
2021/08/28 06:29:36;;;;;;;;;;;16.50;99.90;;;;;;5059045;28;20415;-83
2021/08/28 06:32:02;;;;;;;;;;;16.50;99.90;;;;;;5076649;28;19912;-82
2021/08/28 06:34:28;;;;;;;;;;;16.60;99.90;;;;;;5075478;28;19912;-82
2021/08/28 06:36:53;;;;;;;;;;;16.60;99.90;;;;;;5075082;28;20057;-82
2021/08/28 06:39:19;;;;;;;;;;;16.70;99.90;;;;;;5073554;28;19912;-83
2021/08/28 06:41:44;;;;;;;;;;;16.90;99.90;;;;;;5074679;28;19908;-82
2021/08/28 06:44:10;;;;;;;;;;;17.30;99.90;;;;;;5073411;28;19963;-82
2021/08/28 06:46:35;;;;;;;;;;;19.00;99.90;;;;;;5075402;28;20287;-83
2021/08/28 06:49:01;;;;;;;;;;;20.20;99.90;;;;;;5076209;28;19912;-82
2021/08/28 06:51:26;;;;;;;;;;;20.00;99.90;;;;;;5085062;28;19916;-82
2021/08/28 06:53:52;;;;;;;;;;;19.90;99.90;;;;;;5069333;28;19974;-82
2021/08/28 06:56:17;;;;;;;;;;;20.10;99.90;;;;;;5087907;28;19908;-82
2021/08/28 06:58:43;;;;;;;;;;;22.60;99.90;;;;;;5075467;28;20023;-82
2021/08/28 07:01:08;;;;;;;;;;;22.60;99.90;;;;;;5073262;28;19912;-82
2021/08/28 07:03:34;;;;;;;;;;;21.80;99.90;;;;;;5076194;28;19913;-82
2021/08/28 07:05:59;;;;;;;;;;;21.30;99.90;;;;;;5073131;28;19916;-82
2021/08/28 07:08:25;;;;;;;;;;;20.80;99.90;;;;;;5056792;28;19912;-81
2021/08/28 07:10:50;;;;;;;;;;;20.40;99.90;;;;;;5074141;28;19916;-81
2021/08/28 07:13:16;;;;;;;;;;;20.10;99.90;;;;;;5076795;28;19927;-81
2021/08/28 07:15:41;;;;;;;;;;;19.90;99.90;;;;;;5074831;28;19958;-81
2021/08/28 07:18:08;;;;;;;;;;;19.80;99.90;;;;;;5072680;28;19912;-83
2021/08/28 07:20:34;;;;;;;;;;;19.60;99.90;;;;;;5059959;28;19912;-82
2021/08/28 07:23:00;;;;;;;;;;;19.40;99.90;;;;;;5078620;28;19919;-82
2021/08/28 07:25:25;;;;;;;;;;;19.30;99.90;;;;;;5078249;28;19968;-82
2021/08/28 07:27:51;;;;;;;;;;;19.20;99.90;;;;;;5076440;28;20372;-82
2021/08/28 07:30:16;;;;;;;;;;;19.10;99.90;;;;;;5049174;28;19916;-81
2021/08/28 07:32:42;;;;;;;;;;;19.10;99.90;;;;;;5073721;28;19960;-82
2021/08/28 07:35:07;;;;;;;;;;;19.10;99.90;;;;;;5078515;28;20388;-81
2021/08/28 07:37:33;;;;;;;;;;;19.20;99.90;;;;;;5077325;28;19947;-82
2021/08/28 07:39:58;;;;;;;;;;;19.20;99.90;;;;;;5078619;28;19908;-81
2021/08/28 07:42:24;;;;;;;;;;;19.30;99.90;;;;;;5077225;28;19974;-81
2021/08/28 07:44:49;;;;;;;;;;;19.20;99.90;;;;;;5077178;28;19923;-81
2021/08/28 07:47:15;;;;;;;;;;;19.30;99.90;;;;;;5068648;28;20396;-81
2021/08/28 07:49:40;;;;;;;;;;;19.10;99.90;;;;;;5078093;28;20062;-81
2021/08/28 07:52:06;;;;;;;;;;;19.00;99.90;;;;;;5081639;28;20261;-81
2021/08/28 07:54:31;;;;;;;;;;;19.20;99.90;;;;;;5077270;28;19912;-82
2021/08/28 07:56:59;;;;;;;;;;;20.10;99.90;;;;;;5063567;28;19912;-81
2021/08/28 07:59:25;;;;;;;;;;;20.60;99.90;;;;;;5079715;28;19979;-82
2021/08/28 08:01:52;;;;;;;;;;;21.20;99.90;;;;;;5079941;28;19913;-82
2021/08/28 08:04:18;;;;;;;;;;;22.40;99.90;;;;;;5082639;28;19916;-83
2021/08/28 08:06:43;;;;;;;;;;;23.00;99.90;;;;;;5080153;28;19912;-82
2021/08/28 08:09:08;;;;;;;;;;;22.90;99.90;;;;;;5077897;28;19923;-82
2021/08/28 08:11:34;;;;;;;;;;;22.50;99.90;;;;;;5078792;28;19924;-82
2021/08/28 08:13:59;;;;;;;;;;;22.00;99.90;;;;;;5077208;28;20265;-82
2021/08/28 08:16:25;;;;;;;;;;;21.50;99.90;;;;;;5079938;28;19935;-82
2021/08/28 08:18:52;;;;;;;;;;;21.20;99.90;;;;;;5085882;28;19908;-82
2021/08/28 08:21:17;;;;;;;;;;;20.90;99.90;;;;;;5091134;28;19926;-83
2021/08/28 08:23:43;;;;;;;;;;;20.50;99.90;;;;;;5080869;28;20003;-83
2021/08/28 08:26:09;;;;;;;;;;;20.30;99.90;;;;;;5059984;28;19916;-82
2021/08/28 08:28:34;;;;;;;;;;;20.20;99.90;;;;;;5071443;28;19920;-81
2021/08/28 08:31:00;;;;;;;;;;;20.10;99.90;;;;;;5068349;28;22034;-81
2021/08/28 08:33:25;;;;;;;;;;;20.00;99.90;;;;;;5074684;28;19919;-81
2021/08/28 08:35:51;;;;;;;;;;;20.00;99.90;;;;;;5059673;28;20283;-81
2021/08/28 08:38:16;;;;;;;;;;;20.00;99.90;;;;;;5084465;28;19919;-81
2021/08/28 08:40:42;;;;;;;;;;;20.10;99.90;;;;;;5074073;28;19966;-81
2021/08/28 08:43:08;;;;;;;;;;;20.00;99.90;;;;;;5072923;28;19912;-82
2021/08/28 08:45:34;;;;;;;;;;;20.10;99.90;;;;;;5066114;28;19920;-81
2021/08/28 08:48:00;;;;;;;;;;;20.30;99.90;;;;;;5068084;28;19966;-82
2021/08/28 08:50:25;;;;;;;;;;;20.60;99.90;;;;;;5080398;28;19913;-82
2021/08/28 08:52:55;;;;;;;;;;;20.70;99.90;;;;;;5080296;28;20011;-81
2021/08/28 08:55:20;;;;;;;;;;;20.80;99.90;;;;;;5074227;28;20073;-81
2021/08/28 08:57:46;;;;;;;;;;;21.00;99.90;;;;;;5076666;28;19960;-82
2021/08/28 09:00:13;;;;;;;;;;;20.90;99.90;;;;;;5078390;28;20383;-82
2021/08/28 09:02:38;;;;;;;;;;;20.80;99.90;;;;;;5079453;28;19908;-82
2021/08/28 09:05:04;;;;;;;;;;;20.60;99.90;;;;;;5073657;28;19927;-81
2021/08/28 09:07:30;;;;;;;;;;;20.50;99.90;;;;;;5075408;28;19913;-82
2021/08/28 09:09:55;;;;;;;;;;;20.80;99.90;;;;;;5076030;28;19921;-82
2021/08/28 09:12:21;;;;;;;;;;;23.00;99.90;;;;;;5087850;28;19916;-83
2021/08/28 09:14:55;;;;;;;;;;;24.00;99.90;;;;;;5082527;28;19919;-83
2021/08/28 09:17:22;;;;;;;;;;;25.40;99.90;;;;;;5074638;28;19934;-84
2021/08/28 09:19:48;;;;;;;;;;;28.00;99.90;;;;;;5060415;28;19912;-84
2021/08/28 09:22:23;;;;;;;;;;;29.80;99.90;;;;;;5051287;28;19920;-83
2021/08/28 09:24:49;;;;;;;;;;;29.50;99.90;;;;;;5077238;28;19919;-84
2021/08/28 09:27:31;;;;;;;;;;;30.60;99.90;;;;;;5059070;28;20373;-84
2021/08/28 09:29:56;;;;;;;;;;;32.00;99.90;;;;;;5067524;28;19936;-83
2021/08/28 09:32:22;;;;;;;;;;;31.20;99.90;;;;;;5059438;28;19921;-83
2021/08/28 09:34:47;;;;;;;;;;;30.90;99.90;;;;;;5056688;28;19959;-84
2021/08/28 09:37:14;;;;;;;;;;;30.10;99.90;;;;;;5077215;28;19943;-83
2021/08/28 09:39:44;;;;;;;;;;;29.10;99.90;;;;;;5064449;28;19966;-83
2021/08/28 09:42:11;;;;;;;;;;;28.30;99.90;;;;;;5075567;28;19912;-83
2021/08/28 09:44:41;;;;;;;;;;;28.40;99.90;;;;;;5073658;28;20362;-83
2021/08/28 09:47:07;;;;;;;;;;;28.60;99.90;;;;;;5067844;28;19912;-83
2021/08/28 09:49:33;;;;;;;;;;;30.90;99.90;;;;;;5074936;28;19976;-82
2021/08/28 09:51:59;;;;;;;;;;;32.10;99.90;;;;;;5059399;28;19963;-84
2021/08/28 09:54:25;;;;;;;;;;;32.10;99.90;;;;;;5068742;28;20311;-83
2021/08/28 09:57:17;;;;;;;;;;;30.80;99.90;;;;;;5057579;28;19922;-83
2021/08/28 09:59:43;;;;;;;;;;;29.30;99.90;;;;;;5080451;28;19908;-83
2021/08/28 10:02:12;;;;;;;;;;;27.80;99.90;;;;;;5099743;28;19912;-83
2021/08/28 10:04:57;;;;;;;;;;;26.80;99.90;;;;;;5061558;28;19913;-82
2021/08/28 10:07:27;;;;;;;;;;;25.80;99.90;;;;;;5062360;28;19923;-83
2021/08/28 10:09:54;;;;;;;;;;;24.80;99.90;;;;;;5072268;28;19921;-83
2021/08/28 10:12:20;;;;;;;;;;;24.10;99.90;;;;;;5049074;28;19923;-83
2021/08/28 10:14:46;;;;;;;;;;;23.70;99.90;;;;;;5071439;28;19908;-82
2021/08/28 10:17:12;;;;;;;;;;;23.60;99.90;;;;;;5060408;28;19909;-83
2021/08/28 10:19:38;;;;;;;;;;;23.70;99.90;;;;;;5068396;28;19916;-83
2021/08/28 10:22:04;;;;;;;;;;;23.70;99.90;;;;;;5065584;28;19912;-83
2021/08/28 10:24:30;;;;;;;;;;;23.90;99.90;;;;;;5061833;28;19909;-83
2021/08/28 10:26:55;;;;;;;;;;;24.00;99.90;;;;;;5057887;28;19909;-83
2021/08/28 10:29:21;;;;;;;;;;;23.90;99.90;;;;;;5079692;28;20352;-82
2021/08/28 10:31:47;;;;;;;;;;;23.60;99.90;;;;;;5078596;28;19942;-83
2021/08/28 10:34:14;;;;;;;;;;;23.10;99.90;;;;;;5062410;28;19913;-82
2021/08/28 10:36:39;;;;;;;;;;;22.70;99.90;;;;;;5080008;28;19968;-82
2021/08/28 10:39:05;;;;;;;;;;;22.90;99.90;;;;;;5062728;28;19952;-82
2021/08/28 10:41:31;;;;;;;;;;;23.40;99.90;;;;;;5074631;28;19908;-83
2021/08/28 10:43:59;;;;;;;;;;;24.90;99.90;;;;;;5097820;28;20261;-82
2021/08/28 10:46:27;;;;;;;;;;;27.00;99.90;;;;;;5062702;28;19947;-82
2021/08/28 10:48:57;;;;;;;;;;;26.80;99.90;;;;;;5079703;28;19908;-83
2021/08/28 10:51:23;;;;;;;;;;;26.60;99.90;;;;;;5066815;28;19970;-83
2021/08/28 10:53:53;;;;;;;;;;;26.50;99.90;;;;;;5078030;28;20445;-82
2021/08/28 10:56:19;;;;;;;;;;;26.30;99.90;;;;;;5078511;28;20086;-82
2021/08/28 10:58:45;;;;;;;;;;;26.00;99.90;;;;;;5060331;28;19949;-82
2021/08/28 11:01:10;;;;;;;;;;;25.30;99.90;;;;;;5058602;28;19912;-83
2021/08/28 11:03:35;;;;;;;;;;;24.80;99.90;;;;;;5071906;28;19916;-82
2021/08/28 11:06:13;;;;;;;;;;;24.50;99.90;;;;;;5079666;28;19918;-83
2021/08/28 11:08:49;;;;;;;;;;;24.10;99.90;;;;;;5077565;28;19917;-83
2021/08/28 11:11:18;;;;;;;;;;;23.70;99.90;;;;;;5076423;28;20003;-82
2021/08/28 11:14:00;;;;;;;;;;;23.80;99.90;;;;;;5059551;28;20339;-82
2021/08/28 11:16:41;;;;;;;;;;;23.80;99.90;;;;;;5077660;28;19943;-82
2021/08/28 11:19:07;;;;;;;;;;;23.40;99.90;;;;;;5057670;28;19959;-81
2021/08/28 11:21:43;;;;;;;;;;;23.10;99.90;;;;;;5067129;28;19912;-82
2021/08/28 11:24:11;;;;;;;;;;;23.00;99.90;;;;;;5059110;28;19940;-82
2021/08/28 11:26:38;;;;;;;;;;;23.10;99.90;;;;;;5060554;28;19935;-81
2021/08/28 11:29:36;;;;;;;;;;;23.40;99.90;;;;;;5081500;28;19909;-82
2021/08/28 11:32:11;;;;;;;;;;;24.00;99.90;;;;;;5050450;28;20373;-82
2021/08/28 11:34:49;;;;;;;;;;;24.20;99.90;;;;;;5080605;28;19908;-82
2021/08/28 11:37:27;;;;;;;;;;;24.50;99.90;;;;;;5061137;28;19920;-82
2021/08/28 11:39:54;;;;;;;;;;;25.50;99.90;;;;;;5080949;28;20311;-82
2021/08/28 11:42:20;;;;;;;;;;;26.20;99.90;;;;;;5067000;28;19913;-82
2021/08/28 11:44:49;;;;;;;;;;;26.60;99.90;;;;;;5063416;28;19926;-82
2021/08/28 11:47:14;;;;;;;;;;;27.00;99.90;;;;;;5076732;28;19913;-83
2021/08/28 11:49:40;;;;;;;;;;;27.50;99.90;;;;;;5081235;28;20489;-82
2021/08/28 11:52:06;;;;;;;;;;;27.70;99.90;;;;;;5078729;28;19946;-83
2021/08/28 11:54:32;;;;;;;;;;;28.50;99.90;;;;;;5082483;28;19913;-82
2021/08/28 11:56:57;;;;;;;;;;;29.20;99.90;;;;;;5079633;28;19912;-81
2021/08/28 11:59:39;;;;;;;;;;;29.70;99.90;;;;;;5086450;28;19927;-80
2021/08/28 12:02:05;;;;;;;;;;;29.70;99.90;;;;;;5078064;28;19913;-81
2021/08/28 12:04:34;;;;;;;;;;;29.20;99.90;;;;;;5083426;28;19912;-80
2021/08/28 12:07:00;;;;;;;;;;;28.90;99.90;;;;;;5073661;28;20290;-81
2021/08/28 12:09:26;;;;;;;;;;;28.70;99.90;;;;;;5068681;28;19928;-81
2021/08/28 12:11:52;;;;;;;;;;;28.30;99.90;;;;;;5085924;28;19924;-83
2021/08/28 12:14:18;;;;;;;;;;;28.10;99.90;;;;;;5084477;28;19919;-82
2021/08/28 12:16:44;;;;;;;;;;;27.60;99.90;;;;;;5084369;28;19934;-83
2021/08/28 12:19:11;;;;;;;;;;;27.30;99.90;;;;;;5079314;28;19968;-82
2021/08/28 12:21:40;;;;;;;;;;;27.70;99.90;;;;;;5085801;28;19935;-82
2021/08/28 12:24:11;;;;;;;;;;;28.20;99.90;;;;;;5085187;28;19913;-83
2021/08/28 12:26:36;;;;;;;;;;;28.70;99.90;;;;;;5083448;28;19913;-83
2021/08/28 12:29:03;;;;;;;;;;;30.00;99.90;;;;;;5084219;28;19967;-82
2021/08/28 12:31:30;;;;;;;;;;;30.40;99.90;;;;;;5075169;28;19928;-82
2021/08/28 12:33:56;;;;;;;;;;;30.30;99.90;;;;;;5077604;28;20308;-82
2021/08/28 12:36:28;;;;;;;;;;;29.70;99.90;;;;;;5081833;28;19912;-82
2021/08/28 12:39:05;;;;;;;;;;;28.90;99.90;;;;;;5085160;28;19917;-79
2021/08/28 12:41:31;;;;;;;;;;;28.10;99.90;;;;;;5082142;28;19951;-79
2021/08/28 12:43:57;;;;;;;;;;;28.10;99.90;;;;;;5083894;28;19983;-80
2021/08/28 12:46:22;;;;;;;;;;;28.80;99.90;;;;;;5055037;28;19917;-79
2021/08/28 12:49:06;;;;;;;;;;;29.10;99.80;;;;;;5053527;28;19996;-81
2021/08/28 12:51:32;;;;;;;;;;;28.80;99.80;;;;;;5081536;28;19919;-81
2021/08/28 12:53:57;;;;;;;;;;;28.70;99.90;;;;;;5080924;28;19916;-81
2021/08/28 12:56:23;;;;;;;;;;;29.20;99.90;;;;;;5079815;28;19958;-81
2021/08/28 12:58:48;;;;;;;;;;;29.50;99.50;;;;;;5069008;28;20011;-81
2021/08/28 13:01:14;;;;;;;;;;;29.90;99.10;;;;;;5080438;28;19921;-82
2021/08/28 13:03:52;;;;;;;;;;;30.40;98.30;;;;;;5071157;28;20410;-82
2021/08/28 13:06:23;;;;;;;;;;;30.90;96.70;;;;;;5076025;28;19912;-81
2021/08/28 13:08:49;;;;;;;;;;;31.30;95.30;;;;;;5071965;28;19916;-80
2021/08/28 13:11:19;;;;;;;;;;;31.40;94.10;;;;;;5076360;28;20002;-81
2021/08/28 13:13:51;;;;;;;;;;;31.30;93.60;;;;;;5086379;28;19916;-80
2021/08/28 13:16:17;;;;;;;;;;;31.20;92.30;;;;;;5059120;28;19913;-80
2021/08/28 13:18:42;;;;;;;;;;;31.10;91.00;;;;;;5079811;28;20000;-80
2021/08/28 13:21:08;;;;;;;;;;;30.60;90.20;;;;;;5075838;28;19916;-80
2021/08/28 13:23:36;;;;;;;;;;;29.80;90.30;;;;;;5061027;28;20031;-79
2021/08/28 13:26:03;;;;;;;;;;;29.00;90.80;;;;;;5073073;28;19960;-79
2021/08/28 13:28:30;;;;;;;;;;;28.10;90.60;;;;;;5077694;28;19940;-79
2021/08/28 13:31:14;;;;;;;;;;;27.20;90.90;;;;;;5082884;28;19955;-79
2021/08/28 13:33:40;;;;;;;;;;;26.50;91.70;;;;;;5079778;28;19912;-79
2021/08/28 13:36:05;;;;;;;;;;;26.10;92.40;;;;;;5092567;28;19927;-79
2021/08/28 13:38:32;;;;;;;;;;;25.80;93.30;;;;;;5080985;28;19913;-79
2021/08/28 13:40:57;;;;;;;;;;;25.80;93.50;;;;;;5074598;28;19917;-79
2021/08/28 13:43:23;;;;;;;;;;;26.20;93.80;;;;;;5079740;28;19919;-80
2021/08/28 13:45:50;;;;;;;;;;;26.40;93.90;;;;;;5076456;28;19920;-80
2021/08/28 13:48:15;;;;;;;;;;;26.20;94.00;;;;;;5076646;28;19920;-80
2021/08/28 13:50:40;;;;;;;;;;;26.10;94.60;;;;;;5078250;28;19913;-78
2021/08/28 13:53:06;;;;;;;;;;;25.80;94.50;;;;;;5071084;28;19936;-81
2021/08/28 13:55:32;;;;;;;;;;;25.60;94.90;;;;;;5075566;28;19912;-80
2021/08/28 13:57:57;;;;;;;;;;;25.50;95.30;;;;;;5072397;28;19986;-81
2021/08/28 14:00:23;;;;;;;;;;;25.40;95.50;;;;;;5079819;28;20299;-81
2021/08/28 14:02:48;;;;;;;;;;;25.30;95.80;;;;;;5085186;28;20447;-81
2021/08/28 14:05:14;;;;;;;;;;;25.30;96.00;;;;;;5084349;28;19956;-81
2021/08/28 14:07:40;;;;;;;;;;;25.30;96.10;;;;;;5096110;28;19968;-80
2021/08/28 14:10:06;;;;;;;;;;;25.30;96.20;;;;;;5070786;28;19913;-82
2021/08/28 14:12:32;;;;;;;;;;;25.30;96.30;;;;;;5067966;28;20070;-80
2021/08/28 14:14:57;;;;;;;;;;;25.20;96.30;;;;;;5066881;28;19958;-81